• Join FlightAware (Why Join?)
  • Login
  • US Flag 
04:12PM EDT


 

Airport Tracker/Info


-or-


 

Live Flight TrackerFlight Track Log ✈ EJA370 ✈ 14-May-2013 ✈ KLAX - KMRY

Flight Track Log - Related Links

Times and Time Zones

All times are in EDT time to prevent confusion due to time zone crossing. See the EJA370 flight status page for this flight to view local times or setup timezone preferences in your user account.

Time Position Orientation Groundspeed Altitude Reporting Facility
EDT Latitude Longitude Course Direction KTS MPH feet Rate Location/Type
05:58PM 33.9333 -118.5000 North 250 288 5,900  Level Southern California TRACON
05:59PM 33.9225 -118.5831 261° West 255 293 8,000 960 Climbing Los Angeles Center
06:00PM 33.9553 -118.6586 298° West 277 319 8,000 480 Level Los Angeles Center
06:01PM 34.0325 -118.6872 343° North 299 344 9,000 480 Climbing Los Angeles Center
06:02PM 34.1033 -118.6586 18° North 296 341 9,000 1,320 Level Los Angeles Center
06:03PM 34.2987 -118.6000 North  Level FlightAware Approximate
06:03PM 34.1869 -118.6594 360° North 311 358 11,800  Level Los Angeles Center
06:04PM 34.2778 -118.6767 351° North 328 377 15,200 3,300 Climbing Los Angeles Center
06:05PM 34.3994 -118.6997 351° North 369 425 18,700 2,280 Climbing Los Angeles Center
06:06PM 34.5044 -118.7211 350° North 383 441 20,000 600 Climbing Los Angeles Center
06:07PM 34.6083 -118.7614 342° North 391 450 20,000  Level Los Angeles Center
06:08PM 34.7072 -118.8144 336° Northwest 390 449 20,000  Level Los Angeles Center
06:09PM 34.8047 -118.8664 336° Northwest 387 445 20,000  Level Los Angeles Center
06:10PM 34.8725 -118.9619 311° West 384 442 20,000  Level Los Angeles Center
06:11PM 34.9517 -119.0747 311° West 371 427 20,000  Level Los Angeles Center
06:12PM 35.0194 -119.1700 311° West 374 430 20,000  Level Los Angeles Center
06:13PM 35.0894 -119.2642 312° West 375 432 20,000  Level Los Angeles Center
06:14PM 35.1633 -119.3567 314° West 382 440 20,000  Level Los Angeles Center
06:15PM 35.2358 -119.4497 314° West 380 437 20,000  Level Los Angeles Center
06:16PM 35.3225 -119.5606 314° West 378 435 20,000  Level Los Angeles Center
06:17PM 35.3922 -119.6492 314° West 369 425 20,000  Level Los Angeles Center
06:18PM 35.4200 -119.6856 313° West 370 426 20,000  Level Oakland Center
06:19PM 35.4903 -119.7758 314° West 368 423 20,000  Level Oakland Center
06:20PM 35.5619 -119.8689 313° West 375 432 20,000  Level Oakland Center
06:21PM 35.6333 -119.9597 314° West 375 432 20,000  Level Oakland Center
06:22PM 35.6967 -120.0564 309° West 370 426 20,000  Level Oakland Center
06:23PM 35.7706 -120.1717 308° West 364 419 20,000  Level Oakland Center
06:24PM 35.8308 -120.2669 308° West 358 412 20,000  Level Oakland Center
06:25PM 35.8878 -120.3636 306° West 354 407 20,000 -300 Level Oakland Center
06:26PM 35.9386 -120.4644 302° West 351 404 19,500 -840 Descending Oakland Center
06:27PM 35.9897 -120.5631 303° West 347 399 18,300 -1,260 Descending Oakland Center
06:28PM 36.0400 -120.6625 302° West 345 397 17,000 -1,320 Descending Oakland Center
06:29PM 36.0922 -120.7631 303° West 346 398 15,700 -1,380 Descending Oakland Center
06:30PM 36.1428 -120.8619 302° West 344 396 14,300 -1,560 Descending Oakland Center
06:31PM 36.2025 -120.9803 302° West 342 394 12,600 -1,500 Descending Oakland Center
06:32PM 36.2536 -121.0800 302° West 342 394 11,300 -1,200 Descending Oakland Center
06:33PM 36.3047 -121.1792 303° West 342 394 10,200 -720 Descending Oakland Center
06:34PM 36.3542 -121.2800 301° West 342 394 9,900 -180 Descending Oakland Center
06:35PM 36.4047 -121.3794 302° West 342 394 9,900 -300 Level Oakland Center
06:36PM 36.4539 -121.4772 302° West 340 391 9,400 -1,800 Descending Oakland Center
06:37PM 36.4911 -121.5642 298° West 307 353 6,300 -2,280 Descending Oakland Center
06:38PM 36.5158 -121.6492 290° West 278 320 4,800 -1,860 Descending Oakland Center
06:39PM 36.5333 -121.7000 293° West 208 239 3,300 -1,620 Descending Northern Cal TRACON
06:40PM 36.5500 -121.7500 293° West 170 196 2,200 -1,020 Descending Northern Cal TRACON
06:41PM 36.5667 -121.7833 302° West 115 132 1,300 -780 Descending Northern Cal TRACON
06:42PM 36.5833 -121.8167 302° West 98 113 700 -600 Descending Northern Cal TRACON